logo
Search for airport 
image banner adimage banner adimage banner ad
image banner ad

OPZM - ZAMZAMA

Located in ZAMZAMA, Pakistan

ICAO - , IATA -

Data provided by Airmate  

General information

Coordinates: N26°44'16" E67°40'2"
Elevation is 124 feet MSL.
Magnetic variation is 2° East
View others Airports in Sindh

Operational data

Special qualification required
Current time UTC:
Current local time:
Weather at : - ( 0 km )
METAR: PAPM 191617Z AUTO 08020KT 7SM BKN009 OVC012 02/02 A2988 RMK AO2 CIG 006V012 FZRANO
View NOTAMs / SUP AIP / TFR affecting this airport [VIEW]
Communications frequencies: [VIEW]

Runways:

RWY identifierQFULength (ft)Width (ft)SurfaceLDA (ft)
17524998UNK
35524998UNK

Airport contact information

Address: ZAMZAMA Pakistan

Satellite view of OPZM